createdAt,value
2019-05-15T00:01:08.881Z,5.40
2019-05-15T00:03:38.856Z,5.35
2019-05-15T00:06:05.056Z,5.30
2019-05-15T00:08:32.057Z,5.25
2019-05-15T00:10:59.098Z,5.22
2019-05-15T00:13:28.282Z,5.23
2019-05-15T00:15:55.628Z,5.22
2019-05-15T00:18:22.760Z,5.19
2019-05-15T00:20:49.917Z,5.19
2019-05-15T00:23:18.276Z,5.18
2019-05-15T00:26:30.032Z,5.15
2019-05-15T00:29:09.452Z,5.07
2019-05-15T00:31:26.200Z,5.04
2019-05-15T00:33:53.322Z,5.02
2019-05-15T00:36:20.291Z,4.98
2019-05-15T00:38:48.321Z,4.92
2019-05-15T00:41:15.419Z,4.83
2019-05-15T00:43:44.192Z,4.81
2019-05-15T00:46:11.278Z,4.83
2019-05-15T00:48:39.782Z,4.83
2019-05-15T00:51:08.458Z,4.85
2019-05-15T00:53:38.760Z,4.86
2019-05-15T00:56:08.667Z,4.87
2019-05-15T00:58:35.245Z,4.88
2019-05-15T01:01:02.532Z,4.89
2019-05-15T01:03:29.519Z,4.90
2019-05-15T01:05:58.513Z,4.87
2019-05-15T01:08:25.512Z,4.90
2019-05-15T01:10:52.586Z,4.87
2019-05-15T01:13:19.528Z,4.89
2019-05-15T01:15:48.766Z,4.92
2019-05-15T01:18:18.684Z,4.95
2019-05-15T01:20:45.938Z,4.98
2019-05-15T01:23:14.945Z,5.00
2019-05-15T01:25:42.000Z,5.02
2019-05-15T01:28:10.063Z,5.01
2019-05-15T01:30:39.386Z,5.01
2019-05-15T01:33:08.270Z,4.99
2019-05-15T01:35:34.946Z,4.99
2019-05-15T01:38:01.936Z,5.00
2019-05-15T01:40:29.053Z,4.98
2019-05-15T01:42:59.482Z,4.96
2019-05-15T01:45:28.637Z,4.94
2019-05-15T01:47:55.324Z,4.92
2019-05-15T01:50:23.500Z,4.93
2019-05-15T01:52:50.529Z,4.92
2019-05-15T01:55:18.198Z,4.94
2019-05-15T01:57:45.315Z,5.02
2019-05-15T02:00:12.709Z,5.07
2019-05-15T02:02:39.680Z,5.08
2019-05-15T02:05:08.649Z,5.14
2019-05-15T02:07:39.084Z,5.19
2019-05-15T02:10:06.151Z,5.24
2019-05-15T02:12:33.125Z,5.23
2019-05-15T02:15:00.092Z,5.24
2019-05-15T02:17:28.261Z,5.29
2019-05-15T02:19:55.477Z,5.29
2019-05-15T02:22:22.479Z,5.33
2019-05-15T02:24:49.450Z,5.35
2019-05-15T02:27:18.712Z,5.40
2019-05-15T02:29:45.493Z,5.37
2019-05-15T02:32:12.443Z,5.35
2019-05-15T02:34:39.805Z,5.36
2019-05-15T02:37:08.981Z,5.37
2019-05-15T02:39:38.942Z,5.39
2019-05-15T02:42:05.045Z,5.40
2019-05-15T02:44:32.093Z,5.39
2019-05-15T02:46:59.160Z,5.37
2019-05-15T02:49:26.151Z,5.33
2019-05-15T02:51:53.176Z,5.34
2019-05-15T02:54:20.295Z,5.34
2019-05-15T02:56:49.462Z,5.33
2019-05-15T02:59:19.307Z,5.31
2019-05-15T03:01:45.261Z,5.27
2019-05-15T03:04:12.343Z,5.25
2019-05-15T03:06:39.395Z,5.24
2019-05-15T03:09:09.142Z,5.21
2019-05-15T03:11:35.334Z,5.17
2019-05-15T03:14:02.386Z,5.14
2019-05-15T03:16:30.361Z,5.15
2019-05-15T03:18:59.847Z,5.14
2019-05-15T03:21:29.488Z,5.14
2019-05-15T03:23:59.394Z,5.17
2019-05-15T03:26:29.633Z,5.18
2019-05-15T03:28:58.829Z,5.17
2019-05-15T03:31:47.585Z,5.15
2019-05-15T03:33:54.746Z,5.14
2019-05-15T03:36:24.130Z,5.11
2019-05-15T03:42:39.641Z,5.06
2019-05-15T03:45:10.104Z,5.02
2019-05-15T03:47:39.691Z,4.99
2019-05-15T03:50:05.115Z,4.99
2019-05-15T03:52:32.165Z,4.97
2019-05-15T03:55:00.190Z,4.96
2019-05-15T03:58:22.469Z,4.95
2019-05-15T04:00:49.925Z,4.99
2019-05-15T04:03:20.095Z,4.98
2019-05-15T04:05:49.215Z,4.94
2019-05-15T04:08:15.118Z,4.90
2019-05-15T04:10:42.072Z,4.92
2019-05-15T04:13:09.663Z,4.94
2019-05-15T04:15:39.499Z,4.95
2019-05-15T04:18:08.980Z,4.96
2019-05-15T04:21:11.244Z,4.99
2019-05-15T04:23:39.404Z,5.01
2019-05-15T04:26:09.290Z,5.03
2019-05-15T04:28:41.603Z,5.05
2019-05-15T04:31:09.458Z,5.13
2019-05-15T04:33:39.544Z,5.19
2019-05-15T04:36:05.407Z,5.25
2019-05-15T04:38:32.352Z,5.30
2019-05-15T04:40:59.554Z,5.37
2019-05-15T04:43:30.257Z,5.49
2019-05-15T04:45:59.192Z,5.60
2019-05-15T04:48:24.498Z,5.71
2019-05-15T04:50:51.464Z,5.83
2019-05-15T04:53:19.236Z,5.93
2019-05-15T04:55:49.084Z,6.02
2019-05-15T04:58:20.317Z,6.16
2019-05-15T05:00:52.388Z,6.27
2019-05-15T05:03:20.601Z,6.39
2019-05-15T05:05:49.797Z,6.50
2019-05-15T05:08:19.851Z,6.58
2019-05-15T05:10:48.576Z,6.70
2019-05-15T05:13:14.838Z,6.80
2019-05-15T05:15:41.884Z,6.89
2019-05-15T05:18:09.690Z,6.99
2019-05-15T05:20:38.245Z,7.12
2019-05-15T05:23:05.377Z,7.23
2019-05-15T05:25:32.323Z,7.37
2019-05-15T05:27:59.296Z,7.49
2019-05-15T05:30:26.243Z,7.64
2019-05-15T05:32:53.178Z,7.80
2019-05-15T05:35:20.171Z,7.92
2019-05-15T05:37:48.082Z,8.06
2019-05-15T05:40:15.537Z,8.16
2019-05-15T05:42:42.513Z,8.27
2019-05-15T05:45:10.307Z,8.36
2019-05-15T05:47:38.309Z,8.43
2019-05-15T05:50:07.951Z,8.48
2019-05-15T05:52:35.479Z,8.55
2019-05-15T05:55:02.434Z,8.57
2019-05-15T05:57:29.422Z,8.64
2019-05-15T05:59:58.290Z,8.72
2019-05-15T06:02:25.223Z,8.79
2019-05-15T06:04:52.203Z,8.86
2019-05-15T06:07:19.163Z,8.93
2019-05-15T06:09:48.489Z,8.98
2019-05-15T06:12:15.034Z,9.08
2019-05-15T06:14:42.082Z,9.19
2019-05-15T06:17:09.017Z,9.20
2019-05-15T06:19:38.378Z,9.33
2019-05-15T06:22:04.951Z,9.46
2019-05-15T06:24:31.851Z,9.54
2019-05-15T06:26:58.800Z,9.62
2019-05-15T06:29:25.795Z,9.69
2019-05-15T06:31:59.705Z,9.75
2019-05-15T06:34:28.585Z,9.82
2019-05-15T06:36:55.541Z,9.86
2019-05-15T06:39:22.495Z,10.05
2019-05-15T06:41:49.476Z,10.17
2019-05-15T06:44:18.550Z,10.28
2019-05-15T06:46:45.335Z,10.38
2019-05-15T06:49:12.291Z,10.51
2019-05-15T06:51:39.297Z,10.54
2019-05-15T06:54:08.553Z,10.54
2019-05-15T06:56:35.139Z,10.63
2019-05-15T06:59:02.139Z,10.81
2019-05-15T07:01:29.582Z,10.90
2019-05-15T07:03:58.858Z,10.95
2019-05-15T07:06:25.623Z,11.09
2019-05-15T07:08:52.607Z,11.25
2019-05-15T07:11:20.733Z,11.31
2019-05-15T07:14:44.281Z,11.40
2019-05-15T07:17:11.240Z,11.46
2019-05-15T07:19:39.268Z,11.52
2019-05-15T07:22:06.396Z,11.52
2019-05-15T07:24:35.161Z,11.60
2019-05-15T07:27:02.116Z,11.66
2019-05-15T07:29:29.302Z,11.70
2019-05-15T07:31:58.457Z,11.74
2019-05-15T07:34:28.374Z,11.80
2019-05-15T07:36:55.570Z,11.94
2019-05-15T07:39:22.528Z,11.98
2019-05-15T07:41:49.470Z,11.95
2019-05-15T07:44:18.755Z,11.95
2019-05-15T07:46:45.376Z,12.01
2019-05-15T07:49:12.485Z,12.10
2019-05-15T07:51:39.491Z,12.17
2019-05-15T07:54:08.930Z,12.28
2019-05-15T07:56:35.343Z,12.24
2019-05-15T07:59:02.314Z,12.25
2019-05-15T08:01:29.299Z,12.28
2019-05-15T08:04:05.115Z,12.31
2019-05-15T08:06:29.199Z,12.34
2019-05-15T08:08:56.136Z,12.39
2019-05-15T08:11:24.739Z,12.44
2019-05-15T08:13:51.986Z,12.45
2019-05-15T08:16:18.952Z,12.50
2019-05-15T08:18:48.256Z,12.49
2019-05-15T08:21:14.808Z,12.55
2019-05-15T08:23:43.116Z,12.61
2019-05-15T08:26:10.055Z,12.63
2019-05-15T08:28:57.993Z,12.61
2019-05-15T08:31:25.065Z,12.69
2019-05-15T08:33:53.109Z,12.71
2019-05-15T08:36:20.575Z,12.72
2019-05-15T08:38:48.633Z,12.74
2019-05-15T08:41:18.571Z,12.77
2019-05-15T08:43:45.409Z,12.88
2019-05-15T08:46:12.553Z,13.02
2019-05-15T08:48:39.503Z,13.05
2019-05-15T08:51:08.733Z,13.12
2019-05-15T08:53:37.825Z,13.09
2019-05-15T08:56:04.340Z,13.17
2019-05-15T08:58:31.302Z,13.19
2019-05-15T09:00:58.888Z,13.14
2019-05-15T09:03:28.459Z,13.20
2019-05-15T09:05:54.967Z,13.22
2019-05-15T09:08:22.107Z,13.23
2019-05-15T09:10:50.287Z,13.30
2019-05-15T09:13:18.832Z,13.27
2019-05-15T09:15:48.214Z,13.42
2019-05-15T09:18:16.406Z,13.50
2019-05-15T09:20:44.044Z,13.58
2019-05-15T09:23:11.028Z,13.59
2019-05-15T09:25:38.982Z,13.62
2019-05-15T09:28:08.515Z,13.70
2019-05-15T09:30:35.197Z,13.65
2019-05-15T09:33:03.969Z,13.68
2019-05-15T09:35:30.959Z,13.75
2019-05-15T09:37:58.399Z,13.76
2019-05-15T09:40:41.858Z,13.88
2019-05-15T09:42:54.425Z,14.05
2019-05-15T09:45:21.372Z,14.09
2019-05-15T09:47:48.618Z,14.12
2019-05-15T09:50:16.256Z,14.15
2019-05-15T09:52:43.222Z,14.12
2019-05-15T09:55:10.877Z,14.20
2019-05-15T09:57:38.663Z,14.38
2019-05-15T10:00:08.963Z,14.45
2019-05-15T10:02:39.078Z,14.49
2019-05-15T10:05:10.454Z,14.63
2019-05-15T10:07:34.531Z,14.72
2019-05-15T10:10:01.826Z,14.76
2019-05-15T10:12:34.516Z,14.86
2019-05-15T10:15:11.838Z,14.90
2019-05-15T10:17:41.835Z,15.01
2019-05-15T10:20:09.426Z,15.17
2019-05-15T10:22:36.379Z,15.30
2019-05-15T10:25:03.849Z,15.41
2019-05-15T10:27:30.855Z,15.61
2019-05-15T10:29:58.847Z,15.78
2019-05-15T10:32:28.987Z,15.83
2019-05-15T10:34:58.471Z,15.87
2019-05-15T10:37:24.893Z,15.95
2019-05-15T10:39:52.861Z,16.13
2019-05-15T10:42:20.033Z,16.23
2019-05-15T10:44:48.815Z,16.28
2019-05-15T10:47:15.859Z,16.27
2019-05-15T10:49:42.800Z,16.25
2019-05-15T10:52:11.336Z,16.28
2019-05-15T10:54:38.701Z,16.30
2019-05-15T10:57:08.535Z,16.44
2019-05-15T10:59:34.668Z,16.55
2019-05-15T11:02:01.628Z,16.58
2019-05-15T11:04:28.934Z,16.57
2019-05-15T11:06:58.037Z,16.60
2019-05-15T11:09:24.946Z,16.76
2019-05-15T11:11:51.907Z,16.74
2019-05-15T11:14:18.942Z,16.88
2019-05-15T11:16:48.427Z,17.19
2019-05-15T11:20:18.817Z,17.32
2019-05-15T11:22:46.207Z,17.54
2019-05-15T11:25:13.850Z,17.52
2019-05-15T11:27:40.857Z,17.57
2019-05-15T11:30:08.736Z,17.49
2019-05-15T11:32:35.805Z,17.86
2019-05-15T11:35:04.545Z,18.30
2019-05-15T11:37:31.793Z,18.36
2019-05-15T11:39:59.078Z,18.65
2019-05-15T11:42:28.841Z,18.89
2019-05-15T11:44:55.157Z,19.26
2019-05-15T11:47:22.178Z,19.64
2019-05-15T11:49:49.226Z,19.67
2019-05-15T11:52:18.867Z,19.77
2019-05-15T11:54:45.196Z,20.11
2019-05-15T11:57:12.201Z,20.25
2019-05-15T11:59:45.030Z,20.57
2019-05-15T12:02:08.568Z,20.61
2019-05-15T12:04:38.193Z,20.68
2019-05-15T12:07:05.801Z,20.88
2019-05-15T12:09:32.816Z,21.03
2019-05-15T12:11:59.834Z,21.17
2019-05-15T12:14:29.393Z,21.16
2019-05-15T12:17:06.998Z,21.54
2019-05-15T12:19:24.902Z,21.96
2019-05-15T12:21:51.890Z,21.91
2019-05-15T12:24:18.850Z,22.04
2019-05-15T12:27:42.296Z,22.36
2019-05-15T12:30:10.428Z,22.55
2019-05-15T12:32:40.341Z,22.83
2019-05-15T12:35:07.176Z,22.82
2019-05-15T12:37:34.262Z,22.73
2019-05-15T12:59:59.663Z,22.87
2019-05-15T13:02:28.046Z,22.60
2019-05-15T13:04:55.131Z,22.41
2019-05-15T13:07:22.220Z,22.17
2019-05-15T13:09:49.189Z,22.01
2019-05-15T13:12:18.218Z,22.26
2019-05-15T13:14:45.355Z,22.41
2019-05-15T13:17:12.362Z,22.61
2019-05-15T13:19:39.313Z,22.87
2019-05-15T13:22:17.305Z,23.24
2019-05-15T13:24:35.431Z,23.43
2019-05-15T13:27:02.386Z,23.01
2019-05-15T13:29:48.641Z,22.93
2019-05-15T13:32:21.040Z,23.08
2019-05-15T13:34:48.747Z,23.34
2019-05-15T13:37:26.632Z,23.53
2019-05-15T13:39:44.934Z,23.04
2019-05-15T13:42:11.879Z,22.72
2019-05-15T13:44:38.974Z,22.65
2019-05-15T13:50:24.100Z,22.80
2019-05-15T13:52:51.414Z,22.55
2019-05-15T13:55:35.260Z,22.28
2019-05-15T13:57:57.929Z,22.39
2019-05-15T14:00:24.411Z,22.20
2019-05-15T14:02:52.536Z,22.11
2019-05-15T14:05:19.486Z,22.10
2019-05-15T14:07:50.740Z,21.87
2019-05-15T14:10:18.048Z,21.95
2019-05-15T14:12:44.908Z,21.90
2019-05-15T14:15:12.367Z,21.96
2019-05-15T14:17:39.349Z,21.84
2019-05-15T14:20:09.152Z,21.43
2019-05-15T14:22:35.829Z,21.50
2019-05-15T14:25:03.434Z,21.83
2019-05-15T14:27:30.402Z,21.51
2019-05-15T14:29:58.156Z,21.56
2019-05-15T14:32:37.467Z,21.47
2019-05-15T14:34:58.509Z,21.34
2019-05-15T14:37:28.586Z,21.35
2019-05-15T14:39:58.015Z,21.02
2019-05-15T14:42:44.710Z,21.32
2019-05-15T14:45:11.938Z,21.74
2019-05-15T14:47:58.189Z,22.01
2019-05-15T14:50:25.347Z,21.75
2019-05-15T14:52:52.568Z,21.84
2019-05-15T14:55:19.750Z,21.82
2019-05-15T14:57:48.753Z,21.38
2019-05-15T15:00:19.374Z,21.27
2019-05-15T15:02:52.570Z,21.23
2019-05-15T15:05:26.474Z,21.23
2019-05-15T15:07:53.542Z,21.53
2019-05-15T15:10:20.529Z,21.48
2019-05-15T15:12:49.930Z,21.12
2019-05-15T15:15:18.063Z,20.84
2019-05-15T15:17:45.276Z,20.56
2019-05-15T15:20:14.096Z,20.59
2019-05-15T15:22:41.373Z,20.61
2019-05-15T15:25:09.841Z,20.54
2019-05-15T15:27:38.774Z,20.36
2019-05-15T15:30:09.063Z,20.17
2019-05-15T15:32:37.751Z,20.29
2019-05-15T15:35:08.517Z,20.21
2019-05-15T15:37:35.292Z,20.25
2019-05-15T15:40:48.073Z,20.22
2019-05-15T15:43:15.063Z,20.15
2019-05-15T15:45:42.045Z,20.33
2019-05-15T15:48:09.092Z,20.29
2019-05-15T15:50:38.247Z,20.05
2019-05-15T15:53:05.059Z,20.03
2019-05-15T15:55:32.425Z,20.07
2019-05-15T15:57:59.441Z,20.38
2019-05-15T16:00:28.402Z,20.42
2019-05-15T16:02:55.335Z,20.30
2019-05-15T16:05:22.344Z,20.17
2019-05-15T16:07:49.358Z,20.11
2019-05-15T16:10:18.794Z,20.11
2019-05-15T16:12:45.648Z,19.90
2019-05-15T16:18:53.227Z,19.58
2019-05-15T16:21:20.533Z,19.60
2019-05-15T16:23:48.121Z,19.71
2019-05-15T16:26:15.248Z,19.61
2019-05-15T16:28:42.235Z,19.69
2019-05-15T16:31:09.230Z,20.03
2019-05-15T16:33:36.217Z,20.05
2019-05-15T16:36:03.289Z,19.85
2019-05-15T16:38:30.329Z,19.60
2019-05-15T16:41:02.382Z,19.55
2019-05-15T16:43:29.416Z,19.39
2019-05-15T16:46:02.458Z,19.29
2019-05-15T16:48:29.636Z,19.17
2019-05-15T16:50:58.050Z,18.95
2019-05-15T16:53:25.285Z,18.93
2019-05-15T16:55:52.567Z,18.93
2019-05-15T16:58:19.539Z,18.76
2019-05-15T17:00:49.677Z,18.74
2019-05-15T17:03:24.136Z,18.73
2019-05-15T17:05:51.152Z,18.54
2019-05-15T17:08:18.137Z,18.40
2019-05-15T17:10:45.144Z,18.29
2019-05-15T17:13:12.340Z,18.20
2019-05-15T17:15:39.331Z,18.17
2019-05-15T17:18:08.868Z,17.99
2019-05-15T17:20:42.727Z,17.71
2019-05-15T17:23:09.788Z,17.81
2019-05-15T17:25:38.186Z,17.82
2019-05-15T17:28:19.892Z,17.86
2019-05-15T17:30:48.813Z,17.81
2019-05-15T17:33:35.018Z,17.62
2019-05-15T17:36:02.040Z,17.56
2019-05-15T17:38:29.047Z,17.50
2019-05-15T17:40:57.847Z,17.44
2019-05-15T17:43:24.975Z,17.36
2019-05-15T17:45:51.967Z,17.23
2019-05-15T17:48:19.697Z,17.12
2019-05-15T17:50:52.157Z,17.06
2019-05-15T17:53:17.982Z,16.95
2019-05-15T17:55:44.574Z,16.82
2019-05-15T17:58:13.093Z,16.66
2019-05-15T18:00:40.272Z,16.54
2019-05-15T18:03:25.559Z,16.34
2019-05-15T18:05:52.524Z,16.13
2019-05-15T18:08:19.569Z,15.98
2019-05-15T18:10:47.849Z,15.85
2019-05-15T18:13:15.230Z,15.66
2019-05-15T18:15:42.194Z,15.48
2019-05-15T18:18:09.790Z,15.36
2019-05-15T18:20:38.377Z,15.27
2019-05-15T18:23:08.201Z,15.19
2019-05-15T18:25:35.012Z,15.07
2019-05-15T18:28:01.989Z,14.97
2019-05-15T18:30:29.042Z,14.88
2019-05-15T18:32:58.515Z,14.81
2019-05-15T18:35:24.987Z,14.67
2019-05-15T18:37:52.038Z,14.57
2019-05-15T18:40:19.098Z,14.52
2019-05-15T18:42:49.353Z,14.41
2019-05-15T18:45:15.621Z,14.31
2019-05-15T18:47:43.709Z,14.18
2019-05-15T18:50:12.894Z,14.06
2019-05-15T18:56:11.454Z,13.84
2019-05-15T18:58:38.449Z,13.69
2019-05-15T19:01:05.544Z,13.64
2019-05-15T19:03:32.593Z,13.55
2019-05-15T19:05:59.567Z,13.44
2019-05-15T19:08:28.441Z,13.33
2019-05-15T19:10:55.587Z,13.23
2019-05-15T19:13:28.291Z,13.12
2019-05-15T19:15:57.836Z,13.03
2019-05-15T19:18:24.802Z,12.91
2019-05-15T19:20:51.794Z,12.82
2019-05-15T19:23:18.790Z,12.69
2019-05-15T19:25:48.657Z,12.58
2019-05-15T19:28:15.637Z,12.41
2019-05-15T19:30:42.911Z,12.32
2019-05-15T19:33:10.790Z,12.21
2019-05-15T19:35:39.269Z,12.06
2019-05-15T19:38:06.258Z,11.97
2019-05-15T19:40:33.221Z,11.88
2019-05-15T19:43:03.896Z,11.76
2019-05-15T19:45:29.180Z,11.64
2019-05-15T19:47:58.416Z,11.60
2019-05-15T19:50:25.142Z,11.60
2019-05-15T19:52:52.135Z,11.49
2019-05-15T19:55:25.344Z,11.32
2019-05-15T19:58:03.911Z,11.12
2019-05-15T20:00:51.628Z,10.93
2019-05-15T20:03:18.853Z,10.73
2019-05-15T20:05:45.839Z,10.54
2019-05-15T20:08:12.867Z,10.49
2019-05-15T20:10:42.038Z,10.42
2019-05-15T20:13:29.050Z,10.30
2019-05-15T20:16:14.712Z,10.16
2019-05-15T20:18:41.758Z,10.03
2019-05-15T20:21:09.003Z,9.97
2019-05-15T20:23:38.099Z,9.93
2019-05-15T20:26:04.943Z,9.84
2019-05-15T20:28:32.494Z,9.73
2019-05-15T20:30:59.652Z,9.63
2019-05-15T20:33:28.570Z,9.55
2019-05-15T20:35:55.671Z,9.47
2019-05-15T20:38:22.784Z,9.37
2019-05-15T20:40:49.780Z,9.30
2019-05-15T20:43:18.601Z,9.24
2019-05-15T20:45:45.758Z,9.16
2019-05-15T20:48:18.456Z,9.09
2019-05-15T20:50:48.086Z,8.99
2019-05-15T20:53:14.474Z,8.89
2019-05-15T20:55:41.966Z,8.80
2019-05-15T20:58:08.919Z,8.75
2019-05-15T21:00:40.793Z,8.69
2019-05-15T21:03:05.574Z,8.62
2019-05-15T21:05:32.621Z,8.56
2019-05-15T21:07:59.702Z,8.51
2019-05-15T21:10:26.793Z,8.43
2019-05-15T21:12:53.876Z,8.38
2019-05-15T21:15:27.249Z,8.36
2019-05-15T21:17:59.581Z,8.32
2019-05-15T21:20:23.287Z,8.25
2019-05-15T21:22:50.400Z,8.20
2019-05-15T21:25:19.673Z,8.16
2019-05-15T21:27:48.588Z,8.14
2019-05-15T21:30:21.798Z,8.10
2019-05-15T21:32:49.575Z,8.08
2019-05-15T21:35:18.017Z,8.03
2019-05-15T21:37:45.872Z,8.00
2019-05-15T21:40:13.305Z,7.97
2019-05-15T21:42:41.769Z,7.94
2019-05-15T21:45:18.594Z,7.87
2019-05-15T21:47:49.415Z,7.78
2019-05-15T21:50:19.342Z,7.70
2019-05-15T21:52:49.100Z,7.63
2019-05-15T21:55:22.037Z,7.59
2019-05-15T21:57:49.451Z,7.56
2019-05-15T22:00:29.051Z,7.52
2019-05-15T22:02:58.458Z,7.51
2019-05-15T22:05:25.903Z,7.48
2019-05-15T22:07:54.622Z,7.44
2019-05-15T22:10:21.879Z,7.40
2019-05-15T22:12:49.174Z,7.33
2019-05-15T22:15:19.039Z,7.27
2019-05-15T22:17:49.213Z,7.19
2019-05-15T22:20:16.334Z,7.15
2019-05-15T22:22:43.830Z,7.15
2019-05-15T22:25:11.603Z,7.12
2019-05-15T22:27:38.983Z,7.11
2019-05-15T22:30:08.290Z,7.12
2019-05-15T22:32:38.691Z,7.10
2019-05-15T22:35:12.437Z,7.09
2019-05-15T22:37:33.861Z,7.05
2019-05-15T22:40:01.059Z,7.03
2019-05-15T22:42:33.310Z,7.03
2019-05-15T22:45:00.318Z,7.04
2019-05-15T22:47:28.507Z,7.04
2019-05-15T22:49:55.663Z,7.05
2019-05-15T22:52:43.514Z,7.09
2019-05-15T22:55:10.691Z,7.18
2019-05-15T22:57:38.831Z,7.26
2019-05-15T23:00:08.665Z,7.27
2019-05-15T23:02:37.608Z,7.24
2019-05-15T23:05:41.809Z,7.23
2019-05-15T23:08:08.771Z,7.24
2019-05-15T23:10:37.940Z,7.21
2019-05-15T23:13:05.035Z,7.15
2019-05-15T23:15:32.206Z,7.01
2019-05-15T23:17:59.167Z,6.91
2019-05-15T23:20:28.281Z,6.85
2019-05-15T23:23:32.565Z,6.80
2019-05-15T23:25:59.898Z,6.75
2019-05-15T23:28:28.172Z,6.71
2019-05-15T23:30:57.579Z,6.75
2019-05-15T23:33:24.284Z,6.91
2019-05-15T23:35:51.242Z,7.12
2019-05-15T23:38:18.237Z,7.30
2019-05-15T23:41:22.000Z,7.48
2019-05-15T23:43:49.009Z,7.62
2019-05-15T23:46:18.215Z,7.63
2019-05-15T23:48:44.892Z,7.58
2019-05-15T23:51:31.508Z,7.65
2019-05-15T23:53:58.784Z,7.63
2019-05-15T23:56:25.862Z,7.56
2019-05-15T23:58:52.945Z,7.48
